sensor_id;sensor_type;location;lat;lon;timestamp;pressure;altitude;pressure_sealevel;temperature;humidity
76137;BME280;68622;53.128;17.966;2023-08-24T00:01:12;101403.20;;;19.83;59.41
76137;BME280;68622;53.128;17.966;2023-08-24T00:03:39;101398.36;;;19.76;59.75
76137;BME280;68622;53.128;17.966;2023-08-24T00:06:05;101402.35;;;19.72;59.98
76137;BME280;68622;53.128;17.966;2023-08-24T00:08:32;101402.23;;;19.68;60.06
76137;BME280;68622;53.128;17.966;2023-08-24T00:10:58;101396.67;;;19.63;60.08
76137;BME280;68622;53.128;17.966;2023-08-24T00:13:24;101396.41;;;19.58;59.95
76137;BME280;68622;53.128;17.966;2023-08-24T00:15:52;101400.63;;;19.53;60.25
76137;BME280;68622;53.128;17.966;2023-08-24T00:18:20;101404.94;;;19.48;60.75
76137;BME280;68622;53.128;17.966;2023-08-24T00:20:48;101405.98;;;19.45;60.77
76137;BME280;68622;53.128;17.966;2023-08-24T00:23:15;101407.67;;;19.44;60.66
76137;BME280;68622;53.128;17.966;2023-08-24T00:25:41;101409.94;;;19.43;60.93
76137;BME280;68622;53.128;17.966;2023-08-24T00:28:07;101408.42;;;19.41;60.37
76137;BME280;68622;53.128;17.966;2023-08-24T00:30:33;101410.61;;;19.40;60.43
76137;BME280;68622;53.128;17.966;2023-08-24T00:32:59;101408.92;;;19.39;60.50
76137;BME280;68622;53.128;17.966;2023-08-24T00:35:25;101408.29;;;19.40;60.77
76137;BME280;68622;53.128;17.966;2023-08-24T00:37:51;101405.08;;;19.42;60.68
76137;BME280;68622;53.128;17.966;2023-08-24T00:40:17;101406.20;;;19.42;61.32
76137;BME280;68622;53.128;17.966;2023-08-24T00:42:45;101408.48;;;19.42;60.98
76137;BME280;68622;53.128;17.966;2023-08-24T00:45:12;101410.27;;;19.42;60.96
76137;BME280;68622;53.128;17.966;2023-08-24T00:47:40;101415.37;;;19.39;61.49
76137;BME280;68622;53.128;17.966;2023-08-24T00:50:07;101417.61;;;19.37;61.46
76137;BME280;68622;53.128;17.966;2023-08-24T00:52:35;101420.06;;;19.36;61.10
76137;BME280;68622;53.128;17.966;2023-08-24T00:55:03;101423.02;;;19.34;61.11
76137;BME280;68622;53.128;17.966;2023-08-24T00:57:29;101424.33;;;19.34;61.06
76137;BME280;68622;53.128;17.966;2023-08-24T00:59:56;101430.59;;;19.31;61.25
76137;BME280;68622;53.128;17.966;2023-08-24T01:02:23;101428.35;;;19.29;61.11
76137;BME280;68622;53.128;17.966;2023-08-24T01:04:53;101431.52;;;19.28;61.17
76137;BME280;68622;53.128;17.966;2023-08-24T01:07:19;101433.09;;;19.25;61.77
76137;BME280;68622;53.128;17.966;2023-08-24T01:09:46;101435.16;;;19.22;61.42
76137;BME280;68622;53.128;17.966;2023-08-24T01:15:19;101425.11;;;19.18;61.36
76137;BME280;68622;53.128;17.966;2023-08-24T01:17:47;101425.21;;;19.15;61.33
76137;BME280;68622;53.128;17.966;2023-08-24T01:20:15;101428.22;;;19.12;62.01
76137;BME280;68622;53.128;17.966;2023-08-24T01:28:01;101423.36;;;18.98;62.07
76137;BME280;68622;53.128;17.966;2023-08-24T01:30:28;101424.25;;;18.92;61.78
76137;BME280;68622;53.128;17.966;2023-08-24T01:32:56;101426.41;;;18.88;62.22
76137;BME280;68622;53.128;17.966;2023-08-24T01:35:22;101426.59;;;18.83;62.42
76137;BME280;68622;53.128;17.966;2023-08-24T01:37:50;101423.34;;;18.79;62.31
76137;BME280;68622;53.128;17.966;2023-08-24T01:40:24;101428.35;;;18.75;62.61
76137;BME280;68622;53.128;17.966;2023-08-24T01:42:57;101424.86;;;18.70;62.65
76137;BME280;68622;53.128;17.966;2023-08-24T01:45:28;101427.79;;;18.63;62.93
76137;BME280;68622;53.128;17.966;2023-08-24T01:47:55;101426.83;;;18.55;63.08
76137;BME280;68622;53.128;17.966;2023-08-24T01:50:23;101428.35;;;18.48;63.15
76137;BME280;68622;53.128;17.966;2023-08-24T01:52:49;101429.86;;;18.41;63.01
76137;BME280;68622;53.128;17.966;2023-08-24T01:55:19;101428.09;;;18.36;63.13
76137;BME280;68622;53.128;17.966;2023-08-24T01:57:46;101428.77;;;18.30;63.42
76137;BME280;68622;53.128;17.966;2023-08-24T02:00:12;101425.64;;;18.25;63.23
76137;BME280;68622;53.128;17.966;2023-08-24T02:02:44;101421.63;;;18.22;63.60
76137;BME280;68622;53.128;17.966;2023-08-24T02:05:10;101421.23;;;18.18;63.67
76137;BME280;68622;53.128;17.966;2023-08-24T02:07:38;101422.92;;;18.16;63.71
76137;BME280;68622;53.128;17.966;2023-08-24T02:10:05;101418.20;;;18.13;63.80
76137;BME280;68622;53.128;17.966;2023-08-24T02:12:31;101416.34;;;18.10;64.22
76137;BME280;68622;53.128;17.966;2023-08-24T02:14:56;101416.42;;;18.07;64.43
76137;BME280;68622;53.128;17.966;2023-08-24T02:17:22;101420.23;;;18.02;64.62
76137;BME280;68622;53.128;17.966;2023-08-24T02:19:49;101420.73;;;17.98;64.87
76137;BME280;68622;53.128;17.966;2023-08-24T02:22:16;101420.73;;;17.93;64.92
76137;BME280;68622;53.128;17.966;2023-08-24T02:24:42;101423.88;;;17.88;65.31
76137;BME280;68622;53.128;17.966;2023-08-24T02:27:08;101421.00;;;17.84;65.31
76137;BME280;68622;53.128;17.966;2023-08-24T02:29:34;101422.39;;;17.79;65.53
76137;BME280;68622;53.128;17.966;2023-08-24T02:32:00;101419.81;;;17.75;65.22
76137;BME280;68622;53.128;17.966;2023-08-24T02:34:26;101420.95;;;17.73;65.54
76137;BME280;68622;53.128;17.966;2023-08-24T02:36:56;101420.88;;;17.71;65.76
76137;BME280;68622;53.128;17.966;2023-08-24T02:39:22;101420.09;;;17.71;65.62
76137;BME280;68622;53.128;17.966;2023-08-24T02:41:49;101423.19;;;17.72;65.82
76137;BME280;68622;53.128;17.966;2023-08-24T02:44:15;101426.02;;;17.72;66.30
76137;BME280;68622;53.128;17.966;2023-08-24T02:46:44;101424.73;;;17.72;66.19
76137;BME280;68622;53.128;17.966;2023-08-24T02:49:10;101421.67;;;17.75;66.57
76137;BME280;68622;53.128;17.966;2023-08-24T02:51:36;101424.95;;;17.75;66.78
76137;BME280;68622;53.128;17.966;2023-08-24T02:54:02;101421.45;;;17.75;66.80
76137;BME280;68622;53.128;17.966;2023-08-24T02:56:28;101424.42;;;17.75;66.73
76137;BME280;68622;53.128;17.966;2023-08-24T02:58:54;101420.60;;;17.76;66.57
76137;BME280;68622;53.128;17.966;2023-08-24T03:01:20;101423.74;;;17.78;66.41
76137;BME280;68622;53.128;17.966;2023-08-24T03:03:45;101418.91;;;17.79;66.27
76137;BME280;68622;53.128;17.966;2023-08-24T03:06:11;101420.79;;;17.79;66.60
76137;BME280;68622;53.128;17.966;2023-08-24T03:08:37;101416.37;;;17.83;65.98
76137;BME280;68622;53.128;17.966;2023-08-24T03:11:03;101412.45;;;17.89;65.83
76137;BME280;68622;53.128;17.966;2023-08-24T03:13:30;101412.70;;;17.94;65.65
76137;BME280;68622;53.128;17.966;2023-08-24T03:15:57;101412.86;;;17.99;65.52
76137;BME280;68622;53.128;17.966;2023-08-24T03:18:26;101409.53;;;18.05;65.42
76137;BME280;68622;53.128;17.966;2023-08-24T03:20:52;101411.23;;;18.11;65.49
76137;BME280;68622;53.128;17.966;2023-08-24T03:23:18;101409.50;;;18.14;65.72
76137;BME280;68622;53.128;17.966;2023-08-24T03:25:44;101414.44;;;18.17;65.71
76137;BME280;68622;53.128;17.966;2023-08-24T03:28:10;101421.27;;;18.17;65.69
76137;BME280;68622;53.128;17.966;2023-08-24T03:30:39;101421.22;;;18.12;65.53
76137;BME280;68622;53.128;17.966;2023-08-24T03:33:07;101424.73;;;18.09;65.85
76137;BME280;68622;53.128;17.966;2023-08-24T03:35:33;101421.80;;;18.09;65.71
76137;BME280;68622;53.128;17.966;2023-08-24T03:37:59;101416.85;;;18.07;66.03
76137;BME280;68622;53.128;17.966;2023-08-24T03:40:25;101411.34;;;18.08;65.77
76137;BME280;68622;53.128;17.966;2023-08-24T03:42:51;101410.18;;;18.09;65.95
76137;BME280;68622;53.128;17.966;2023-08-24T03:45:20;101409.30;;;18.11;65.67
76137;BME280;68622;53.128;17.966;2023-08-24T03:47:46;101406.96;;;18.13;65.35
76137;BME280;68622;53.128;17.966;2023-08-24T03:50:12;101408.31;;;18.13;65.54
76137;BME280;68622;53.128;17.966;2023-08-24T03:52:37;101407.05;;;18.12;65.59
76137;BME280;68622;53.128;17.966;2023-08-24T03:55:06;101406.03;;;18.11;65.59
76137;BME280;68622;53.128;17.966;2023-08-24T03:57:33;101408.20;;;18.09;65.72
76137;BME280;68622;53.128;17.966;2023-08-24T03:59:59;101409.02;;;18.07;66.07
76137;BME280;68622;53.128;17.966;2023-08-24T04:02:26;101412.52;;;18.06;66.03
76137;BME280;68622;53.128;17.966;2023-08-24T04:04:53;101416.89;;;18.04;65.91
76137;BME280;68622;53.128;17.966;2023-08-24T04:07:18;101420.16;;;17.99;66.45
76137;BME280;68622;53.128;17.966;2023-08-24T04:09:47;101422.40;;;18.00;66.30
76137;BME280;68622;53.128;17.966;2023-08-24T04:12:13;101427.41;;;17.99;66.11
76137;BME280;68622;53.128;17.966;2023-08-24T04:14:39;101436.21;;;18.04;66.13
76137;BME280;68622;53.128;17.966;2023-08-24T04:17:05;101437.46;;;18.04;66.15
76137;BME280;68622;53.128;17.966;2023-08-24T04:19:31;101440.10;;;17.99;65.94
76137;BME280;68622;53.128;17.966;2023-08-24T04:21:57;101442.08;;;17.98;66.06
76137;BME280;68622;53.128;17.966;2023-08-24T04:24:23;101444.24;;;17.98;66.45
76137;BME280;68622;53.128;17.966;2023-08-24T04:26:50;101442.19;;;18.01;66.05
76137;BME280;68622;53.128;17.966;2023-08-24T04:29:17;101439.04;;;18.02;66.30
76137;BME280;68622;53.128;17.966;2023-08-24T04:31:43;101441.70;;;18.05;66.39
76137;BME280;68622;53.128;17.966;2023-08-24T04:34:09;101441.79;;;18.09;66.37
76137;BME280;68622;53.128;17.966;2023-08-24T04:36:35;101440.88;;;18.14;66.01
76137;BME280;68622;53.128;17.966;2023-08-24T04:39:00;101435.00;;;18.20;65.82
76137;BME280;68622;53.128;17.966;2023-08-24T04:41:27;101433.73;;;18.27;65.83
76137;BME280;68622;53.128;17.966;2023-08-24T04:43:54;101428.81;;;18.35;65.81
76137;BME280;68622;53.128;17.966;2023-08-24T04:46:20;101424.19;;;18.43;65.59
76137;BME280;68622;53.128;17.966;2023-08-24T04:48:46;101427.15;;;18.52;65.77
76137;BME280;68622;53.128;17.966;2023-08-24T04:51:12;101425.65;;;18.60;65.75
76137;BME280;68622;53.128;17.966;2023-08-24T04:53:38;101427.57;;;18.70;65.29
76137;BME280;68622;53.128;17.966;2023-08-24T04:56:04;101427.52;;;18.76;64.88
76137;BME280;68622;53.128;17.966;2023-08-24T04:58:30;101432.45;;;18.82;64.92
76137;BME280;68622;53.128;17.966;2023-08-24T05:00:55;101433.36;;;18.87;64.79
76137;BME280;68622;53.128;17.966;2023-08-24T05:03:21;101437.88;;;18.89;64.73
76137;BME280;68622;53.128;17.966;2023-08-24T05:05:47;101437.45;;;18.91;64.85
76137;BME280;68622;53.128;17.966;2023-08-24T05:08:13;101438.95;;;18.93;64.75
76137;BME280;68622;53.128;17.966;2023-08-24T05:10:39;101439.48;;;18.95;64.62
76137;BME280;68622;53.128;17.966;2023-08-24T05:13:05;101441.54;;;19.01;64.46
76137;BME280;68622;53.128;17.966;2023-08-24T05:15:31;101444.36;;;19.05;64.12
76137;BME280;68622;53.128;17.966;2023-08-24T05:17:57;101448.02;;;19.08;64.00
76137;BME280;68622;53.128;17.966;2023-08-24T05:20:25;101445.73;;;19.13;64.13
76137;BME280;68622;53.128;17.966;2023-08-24T05:22:51;101447.30;;;19.16;64.01
76137;BME280;68622;53.128;17.966;2023-08-24T05:25:17;101449.98;;;19.20;63.72
76137;BME280;68622;53.128;17.966;2023-08-24T05:27:44;101449.77;;;19.24;63.81
76137;BME280;68622;53.128;17.966;2023-08-24T05:30:10;101448.42;;;19.26;63.52
76137;BME280;68622;53.128;17.966;2023-08-24T05:32:36;101451.48;;;19.29;63.59
76137;BME280;68622;53.128;17.966;2023-08-24T05:35:08;101452.25;;;19.33;63.57
76137;BME280;68622;53.128;17.966;2023-08-24T05:37:35;101451.08;;;19.40;63.13
76137;BME280;68622;53.128;17.966;2023-08-24T05:40:02;101460.69;;;19.47;63.09
76137;BME280;68622;53.128;17.966;2023-08-24T05:42:27;101458.35;;;19.58;62.91
76137;BME280;68622;53.128;17.966;2023-08-24T05:44:53;101461.99;;;19.66;62.64
76137;BME280;68622;53.128;17.966;2023-08-24T05:47:19;101456.00;;;19.74;62.45
76137;BME280;68622;53.128;17.966;2023-08-24T05:49:45;101458.11;;;19.82;62.25
76137;BME280;68622;53.128;17.966;2023-08-24T05:52:11;101456.48;;;19.83;61.57
76137;BME280;68622;53.128;17.966;2023-08-24T05:54:37;101457.45;;;19.89;61.58
76137;BME280;68622;53.128;17.966;2023-08-24T05:57:04;101450.66;;;19.97;61.33
76137;BME280;68622;53.128;17.966;2023-08-24T05:59:31;101452.05;;;20.03;61.31
76137;BME280;68622;53.128;17.966;2023-08-24T06:01:57;101450.85;;;20.09;60.69
76137;BME280;68622;53.128;17.966;2023-08-24T06:04:23;101446.89;;;20.18;60.97
76137;BME280;68622;53.128;17.966;2023-08-24T06:06:49;101450.45;;;20.26;60.51
76137;BME280;68622;53.128;17.966;2023-08-24T06:09:15;101450.90;;;20.32;61.38
76137;BME280;68622;53.128;17.966;2023-08-24T06:11:41;101450.64;;;20.42;61.46
76137;BME280;68622;53.128;17.966;2023-08-24T06:14:07;101452.02;;;20.50;60.25
76137;BME280;68622;53.128;17.966;2023-08-24T06:16:33;101445.71;;;20.58;59.65
76137;BME280;68622;53.128;17.966;2023-08-24T06:18:59;101445.52;;;20.67;59.20
76137;BME280;68622;53.128;17.966;2023-08-24T06:21:25;101445.52;;;20.77;58.93
76137;BME280;68622;53.128;17.966;2023-08-24T06:23:51;101447.08;;;20.83;58.45
76137;BME280;68622;53.128;17.966;2023-08-24T06:26:17;101452.84;;;20.93;58.38
76137;BME280;68622;53.128;17.966;2023-08-24T06:28:43;101450.95;;;21.04;58.37
76137;BME280;68622;53.128;17.966;2023-08-24T06:31:09;101450.89;;;21.16;57.99
76137;BME280;68622;53.128;17.966;2023-08-24T06:33:36;101450.86;;;21.29;57.93
76137;BME280;68622;53.128;17.966;2023-08-24T06:36:03;101448.37;;;21.44;58.01
76137;BME280;68622;53.128;17.966;2023-08-24T06:38:31;101451.48;;;21.53;57.20
76137;BME280;68622;53.128;17.966;2023-08-24T06:40:58;101451.23;;;21.60;56.50
76137;BME280;68622;53.128;17.966;2023-08-24T06:43:27;101448.98;;;21.77;57.22
76137;BME280;68622;53.128;17.966;2023-08-24T06:45:54;101454.47;;;21.91;56.54
76137;BME280;68622;53.128;17.966;2023-08-24T06:48:20;101448.40;;;22.02;55.56
76137;BME280;68622;53.128;17.966;2023-08-24T06:50:47;101446.32;;;22.14;55.76
76137;BME280;68622;53.128;17.966;2023-08-24T06:53:13;101447.11;;;22.27;55.04
76137;BME280;68622;53.128;17.966;2023-08-24T06:55:40;101450.41;;;22.39;55.00
76137;BME280;68622;53.128;17.966;2023-08-24T06:58:06;101447.51;;;22.57;53.98
76137;BME280;68622;53.128;17.966;2023-08-24T07:00:32;101449.33;;;22.63;53.94
76137;BME280;68622;53.128;17.966;2023-08-24T07:02:59;101453.86;;;22.76;53.80
76137;BME280;68622;53.128;17.966;2023-08-24T07:05:25;101450.07;;;22.84;52.14
76137;BME280;68622;53.128;17.966;2023-08-24T07:07:52;101454.31;;;22.91;52.76
76137;BME280;68622;53.128;17.966;2023-08-24T07:10:19;101455.46;;;23.04;52.09
76137;BME280;68622;53.128;17.966;2023-08-24T07:12:46;101454.98;;;23.10;51.17
76137;BME280;68622;53.128;17.966;2023-08-24T07:15:12;101453.46;;;23.18;50.68
76137;BME280;68622;53.128;17.966;2023-08-24T07:17:39;101456.17;;;23.23;51.21
76137;BME280;68622;53.128;17.966;2023-08-24T07:20:05;101461.89;;;23.34;50.99
76137;BME280;68622;53.128;17.966;2023-08-24T07:22:32;101462.19;;;23.40;50.91
76137;BME280;68622;53.128;17.966;2023-08-24T07:24:58;101465.38;;;23.51;50.88
76137;BME280;68622;53.128;17.966;2023-08-24T07:27:24;101462.33;;;23.53;50.49
76137;BME280;68622;53.128;17.966;2023-08-24T07:29:50;101466.34;;;23.58;50.57
76137;BME280;68622;53.128;17.966;2023-08-24T07:32:16;101464.27;;;23.64;50.77
76137;BME280;68622;53.128;17.966;2023-08-24T07:34:41;101463.38;;;23.61;50.35
76137;BME280;68622;53.128;17.966;2023-08-24T07:37:07;101458.27;;;23.73;50.95
76137;BME280;68622;53.128;17.966;2023-08-24T07:39:33;101459.42;;;23.85;51.13
76137;BME280;68622;53.128;17.966;2023-08-24T07:41:59;101456.60;;;23.96;50.03
76137;BME280;68622;53.128;17.966;2023-08-24T07:44:25;101458.19;;;24.14;49.74
76137;BME280;68622;53.128;17.966;2023-08-24T07:46:52;101458.12;;;24.27;48.80
76137;BME280;68622;53.128;17.966;2023-08-24T07:49:18;101458.06;;;24.30;49.05
76137;BME280;68622;53.128;17.966;2023-08-24T07:51:44;101458.92;;;24.52;47.91
76137;BME280;68622;53.128;17.966;2023-08-24T07:54:09;101458.97;;;24.79;48.14
76137;BME280;68622;53.128;17.966;2023-08-24T07:56:36;101461.83;;;25.06;47.57
76137;BME280;68622;53.128;17.966;2023-08-24T07:59:02;101461.27;;;25.16;44.62
76137;BME280;68622;53.128;17.966;2023-08-24T08:01:28;101461.95;;;25.17;42.14
76137;BME280;68622;53.128;17.966;2023-08-24T08:03:54;101464.56;;;25.27;43.48
76137;BME280;68622;53.128;17.966;2023-08-24T08:06:20;101462.98;;;25.30;41.88
76137;BME280;68622;53.128;17.966;2023-08-24T08:08:47;101460.52;;;25.46;43.62
76137;BME280;68622;53.128;17.966;2023-08-24T08:11:16;101457.33;;;25.57;42.54
76137;BME280;68622;53.128;17.966;2023-08-24T08:13:42;101459.77;;;25.71;44.36
76137;BME280;68622;53.128;17.966;2023-08-24T08:16:07;101460.37;;;25.82;43.03
76137;BME280;68622;53.128;17.966;2023-08-24T08:18:35;101460.19;;;25.79;39.79
76137;BME280;68622;53.128;17.966;2023-08-24T08:21:01;101461.72;;;25.77;38.70
76137;BME280;68622;53.128;17.966;2023-08-24T08:23:29;101465.84;;;25.84;39.18
76137;BME280;68622;53.128;17.966;2023-08-24T08:25:55;101466.36;;;25.72;37.46
76137;BME280;68622;53.128;17.966;2023-08-24T08:28:21;101465.89;;;25.84;38.28
76137;BME280;68622;53.128;17.966;2023-08-24T08:30:48;101462.50;;;25.82;37.41
76137;BME280;68622;53.128;17.966;2023-08-24T08:33:15;101467.73;;;25.95;41.14
76137;BME280;68622;53.128;17.966;2023-08-24T08:35:41;101464.91;;;26.02;40.26
76137;BME280;68622;53.128;17.966;2023-08-24T08:38:07;101467.96;;;26.01;38.76
76137;BME280;68622;53.128;17.966;2023-08-24T08:40:37;101468.08;;;26.11;41.34
76137;BME280;68622;53.128;17.966;2023-08-24T08:43:03;101467.88;;;26.20;41.23
76137;BME280;68622;53.128;17.966;2023-08-24T08:45:29;101465.98;;;26.19;38.63
76137;BME280;68622;53.128;17.966;2023-08-24T08:47:57;101465.40;;;26.17;37.89
76137;BME280;68622;53.128;17.966;2023-08-24T08:50:24;101471.79;;;26.23;39.92
76137;BME280;68622;53.128;17.966;2023-08-24T08:52:50;101471.15;;;26.33;39.83
76137;BME280;68622;53.128;17.966;2023-08-24T08:55:17;101468.16;;;26.35;38.56
76137;BME280;68622;53.128;17.966;2023-08-24T08:57:47;101473.14;;;26.32;38.19
76137;BME280;68622;53.128;17.966;2023-08-24T09:00:15;101471.90;;;26.35;38.25
76137;BME280;68622;53.128;17.966;2023-08-24T09:02:43;101469.95;;;26.26;38.19
76137;BME280;68622;53.128;17.966;2023-08-24T09:05:11;101471.29;;;26.26;39.00
76137;BME280;68622;53.128;17.966;2023-08-24T09:07:41;101468.60;;;26.11;39.64
76137;BME280;68622;53.128;17.966;2023-08-24T09:10:08;101461.60;;;26.10;39.63
76137;BME280;68622;53.128;17.966;2023-08-24T09:12:34;101462.54;;;26.16;40.62
76137;BME280;68622;53.128;17.966;2023-08-24T09:15:05;101463.20;;;26.20;40.26
76137;BME280;68622;53.128;17.966;2023-08-24T09:17:33;101461.70;;;26.28;41.12
76137;BME280;68622;53.128;17.966;2023-08-24T09:20:06;101457.80;;;26.27;39.94
76137;BME280;68622;53.128;17.966;2023-08-24T09:22:35;101453.03;;;26.23;39.18
76137;BME280;68622;53.128;17.966;2023-08-24T09:25:02;101452.08;;;26.16;39.07
76137;BME280;68622;53.128;17.966;2023-08-24T09:27:30;101451.10;;;26.19;39.60
76137;BME280;68622;53.128;17.966;2023-08-24T09:29:57;101447.26;;;26.09;38.49
76137;BME280;68622;53.128;17.966;2023-08-24T09:32:29;101446.46;;;26.05;39.06
76137;BME280;68622;53.128;17.966;2023-08-24T09:34:56;101443.91;;;25.94;39.04
76137;BME280;68622;53.128;17.966;2023-08-24T09:37:22;101443.58;;;25.93;39.54
76137;BME280;68622;53.128;17.966;2023-08-24T09:39:47;101445.23;;;25.95;39.57
76137;BME280;68622;53.128;17.966;2023-08-24T09:42:13;101443.72;;;25.91;39.69
76137;BME280;68622;53.128;17.966;2023-08-24T09:44:46;101440.94;;;26.03;39.69
76137;BME280;68622;53.128;17.966;2023-08-24T09:47:12;101440.31;;;26.09;39.78
76137;BME280;68622;53.128;17.966;2023-08-24T09:49:38;101442.96;;;26.07;39.55
76137;BME280;68622;53.128;17.966;2023-08-24T09:52:08;101440.48;;;26.36;39.49
76137;BME280;68622;53.128;17.966;2023-08-24T09:54:38;101439.45;;;26.60;39.37
76137;BME280;68622;53.128;17.966;2023-08-24T09:57:09;101440.90;;;26.75;38.53
76137;BME280;68622;53.128;17.966;2023-08-24T09:59:39;101437.20;;;26.90;38.54
76137;BME280;68622;53.128;17.966;2023-08-24T10:02:16;101436.53;;;27.08;38.22
76137;BME280;68622;53.128;17.966;2023-08-24T10:04:46;101434.35;;;27.29;38.20
76137;BME280;68622;53.128;17.966;2023-08-24T10:07:17;101427.80;;;27.43;38.08
76137;BME280;68622;53.128;17.966;2023-08-24T10:10:18;101427.18;;;27.49;38.08
76137;BME280;68622;53.128;17.966;2023-08-24T10:12:50;101422.77;;;27.46;37.95
76137;BME280;68622;53.128;17.966;2023-08-24T10:15:17;101425.32;;;27.49;38.16
76137;BME280;68622;53.128;17.966;2023-08-24T10:17:44;101426.77;;;27.37;38.01
76137;BME280;68622;53.128;17.966;2023-08-24T10:20:11;101419.36;;;27.42;38.19
76137;BME280;68622;53.128;17.966;2023-08-24T10:22:38;101416.42;;;27.40;38.05
76137;BME280;68622;53.128;17.966;2023-08-24T10:25:07;101415.65;;;27.44;37.47
76137;BME280;68622;53.128;17.966;2023-08-24T10:27:35;101414.38;;;27.56;38.14
76137;BME280;68622;53.128;17.966;2023-08-24T10:30:02;101406.86;;;27.69;37.77
76137;BME280;68622;53.128;17.966;2023-08-24T10:32:29;101402.89;;;27.72;37.60
76137;BME280;68622;53.128;17.966;2023-08-24T10:34:57;101403.27;;;27.67;37.34
76137;BME280;68622;53.128;17.966;2023-08-24T10:37:27;101401.61;;;27.72;36.91
76137;BME280;68622;53.128;17.966;2023-08-24T10:39:53;101403.89;;;27.66;37.31
76137;BME280;68622;53.128;17.966;2023-08-24T10:42:19;101394.40;;;27.68;37.75
76137;BME280;68622;53.128;17.966;2023-08-24T10:44:49;101393.10;;;27.54;37.70
76137;BME280;68622;53.128;17.966;2023-08-24T10:47:21;101395.13;;;27.56;37.74
76137;BME280;68622;53.128;17.966;2023-08-24T10:52:24;101385.43;;;27.59;37.48
76137;BME280;68622;53.128;17.966;2023-08-24T10:54:52;101387.23;;;27.36;37.66
76137;BME280;68622;53.128;17.966;2023-08-24T11:00:17;101379.42;;;27.23;37.21
76137;BME280;68622;53.128;17.966;2023-08-24T11:02:50;101382.77;;;27.17;37.48
76137;BME280;68622;53.128;17.966;2023-08-24T11:05:27;101381.53;;;27.17;37.17
76137;BME280;68622;53.128;17.966;2023-08-24T11:07:57;101372.66;;;27.13;38.34
76137;BME280;68622;53.128;17.966;2023-08-24T11:10:24;101368.80;;;27.04;38.14
76137;BME280;68622;53.128;17.966;2023-08-24T11:15:34;101362.63;;;27.17;38.44
76137;BME280;68622;53.128;17.966;2023-08-24T11:20:42;101362.72;;;27.37;38.09
76137;BME280;68622;53.128;17.966;2023-08-24T11:23:09;101366.56;;;27.43;37.41
76137;BME280;68622;53.128;17.966;2023-08-24T11:25:35;101365.38;;;27.40;36.28
76137;BME280;68622;53.128;17.966;2023-08-24T11:28:05;101366.15;;;27.43;36.82
76137;BME280;68622;53.128;17.966;2023-08-24T11:30:32;101356.23;;;27.34;36.40
76137;BME280;68622;53.128;17.966;2023-08-24T11:33:02;101355.60;;;27.37;37.13
76137;BME280;68622;53.128;17.966;2023-08-24T11:35:29;101348.52;;;27.38;37.21
76137;BME280;68622;53.128;17.966;2023-08-24T11:38:00;101349.08;;;27.47;37.63
76137;BME280;68622;53.128;17.966;2023-08-24T11:40:26;101342.87;;;27.47;37.24
76137;BME280;68622;53.128;17.966;2023-08-24T11:42:56;101346.29;;;27.51;37.13
76137;BME280;68622;53.128;17.966;2023-08-24T11:45:22;101339.54;;;27.46;37.50
76137;BME280;68622;53.128;17.966;2023-08-24T11:47:50;101337.65;;;27.58;37.29
76137;BME280;68622;53.128;17.966;2023-08-24T11:50:17;101337.92;;;27.63;36.98
76137;BME280;68622;53.128;17.966;2023-08-24T11:52:43;101329.27;;;27.59;36.49
76137;BME280;68622;53.128;17.966;2023-08-24T11:55:10;101333.38;;;27.65;36.33
76137;BME280;68622;53.128;17.966;2023-08-24T11:57:37;101327.83;;;27.57;35.78
76137;BME280;68622;53.128;17.966;2023-08-24T12:00:04;101328.09;;;27.63;36.18
76137;BME280;68622;53.128;17.966;2023-08-24T12:02:31;101321.88;;;27.63;36.54
76137;BME280;68622;53.128;17.966;2023-08-24T12:04:58;101318.27;;;27.61;36.56
76137;BME280;68622;53.128;17.966;2023-08-24T12:07:25;101317.83;;;27.54;36.16
76137;BME280;68622;53.128;17.966;2023-08-24T12:09:53;101316.20;;;27.50;36.14
76137;BME280;68622;53.128;17.966;2023-08-24T12:12:20;101315.39;;;27.51;36.09
76137;BME280;68622;53.128;17.966;2023-08-24T12:14:48;101316.49;;;27.52;36.03
76137;BME280;68622;53.128;17.966;2023-08-24T12:17:15;101310.21;;;27.58;36.18
76137;BME280;68622;53.128;17.966;2023-08-24T12:19:43;101310.30;;;27.62;35.99
76137;BME280;68622;53.128;17.966;2023-08-24T12:22:16;101307.41;;;27.66;35.92
76137;BME280;68622;53.128;17.966;2023-08-24T12:24:46;101307.70;;;27.65;35.88
76137;BME280;68622;53.128;17.966;2023-08-24T12:29:45;101304.57;;;27.63;35.75
76137;BME280;68622;53.128;17.966;2023-08-24T12:32:11;101300.77;;;27.54;35.92
76137;BME280;68622;53.128;17.966;2023-08-24T12:34:37;101303.16;;;27.53;35.93
76137;BME280;68622;53.128;17.966;2023-08-24T12:37:03;101302.45;;;27.56;36.17
76137;BME280;68622;53.128;17.966;2023-08-24T12:39:38;101297.86;;;27.55;36.31
76137;BME280;68622;53.128;17.966;2023-08-24T12:42:05;101297.36;;;27.53;36.72
76137;BME280;68622;53.128;17.966;2023-08-24T12:44:32;101295.33;;;27.46;37.20
76137;BME280;68622;53.128;17.966;2023-08-24T12:46:59;101289.02;;;27.42;37.37
76137;BME280;68622;53.128;17.966;2023-08-24T12:49:24;101283.90;;;27.48;36.74
76137;BME280;68622;53.128;17.966;2023-08-24T12:51:50;101285.02;;;27.53;37.12
76137;BME280;68622;53.128;17.966;2023-08-24T12:54:16;101283.40;;;27.46;36.29
76137;BME280;68622;53.128;17.966;2023-08-24T12:56:42;101280.45;;;27.39;36.68
76137;BME280;68622;53.128;17.966;2023-08-24T12:59:08;101278.85;;;27.37;37.21
76137;BME280;68622;53.128;17.966;2023-08-24T13:01:34;101277.53;;;27.29;36.78